createdAt,value
2017-12-27T00:01:12.612Z,12.30
2017-12-27T00:03:46.431Z,12.30
2017-12-27T00:06:20.302Z,12.30
2017-12-27T00:08:55.961Z,12.40
2017-12-27T00:11:29.886Z,12.30
2017-12-27T00:14:04.177Z,12.40
2017-12-27T00:16:38.483Z,12.40
2017-12-27T00:19:12.454Z,12.00
2017-12-27T00:21:46.466Z,11.70
2017-12-27T00:24:20.429Z,11.80
2017-12-27T00:26:54.392Z,11.80
2017-12-27T00:29:28.239Z,11.80
2017-12-27T00:31:56.002Z,11.90
2017-12-27T00:34:24.238Z,11.90
2017-12-27T00:36:52.482Z,12.00
2017-12-27T00:39:21.223Z,11.70
2017-12-27T00:41:49.436Z,11.70
2017-12-27T00:44:18.065Z,11.40
2017-12-27T00:46:46.331Z,11.50
2017-12-27T00:49:14.560Z,11.30
2017-12-27T00:51:43.027Z,11.00
2017-12-27T00:54:11.303Z,10.80
2017-12-27T00:56:39.779Z,10.70
2017-12-27T00:59:08.011Z,10.70
2017-12-27T01:01:36.280Z,10.80
2017-12-27T01:04:04.512Z,10.60
2017-12-27T01:06:32.743Z,10.50
2017-12-27T01:09:01.261Z,10.60
2017-12-27T01:11:29.496Z,10.70
2017-12-27T01:13:57.735Z,10.80
2017-12-27T01:16:26.000Z,10.90
2017-12-27T01:18:54.223Z,11.00
2017-12-27T01:21:22.458Z,11.10
2017-12-27T01:23:51.123Z,11.10
2017-12-27T01:26:19.355Z,11.10
2017-12-27T01:28:47.591Z,11.00
2017-12-27T01:31:15.866Z,10.70
2017-12-27T01:33:44.100Z,10.50
2017-12-27T01:36:12.603Z,10.40
2017-12-27T01:38:40.854Z,10.40
2017-12-27T01:41:09.082Z,10.30
2017-12-27T01:43:37.721Z,10.50
2017-12-27T01:46:05.976Z,10.50
2017-12-27T01:48:34.210Z,10.40
2017-12-27T01:51:02.443Z,10.70
2017-12-27T01:53:30.715Z,10.70
2017-12-27T01:55:59.009Z,10.80
2017-12-27T01:58:27.240Z,10.80
2017-12-27T02:00:55.492Z,10.80
2017-12-27T02:03:24.116Z,10.80
2017-12-27T02:05:52.356Z,10.80
2017-12-27T02:08:21.114Z,10.70
2017-12-27T02:10:49.344Z,10.80
2017-12-27T02:13:17.799Z,10.70
2017-12-27T02:15:46.044Z,10.70
2017-12-27T02:18:14.275Z,10.70
2017-12-27T02:20:42.511Z,10.60
2017-12-27T02:23:10.787Z,10.70
2017-12-27T02:25:40.489Z,10.50
2017-12-27T02:28:09.084Z,10.40
2017-12-27T02:30:37.655Z,10.60
2017-12-27T02:33:05.887Z,10.70
2017-12-27T02:35:34.115Z,10.70
2017-12-27T02:38:02.379Z,10.60
2017-12-27T02:40:30.614Z,10.60
2017-12-27T02:42:58.863Z,10.50
2017-12-27T02:45:27.508Z,10.00
2017-12-27T02:47:55.806Z,10.00
2017-12-27T02:50:24.027Z,10.00
2017-12-27T02:52:52.263Z,9.90
2017-12-27T02:55:20.543Z,9.80
2017-12-27T02:57:49.175Z,10.10
2017-12-27T03:00:17.438Z,10.10
2017-12-27T03:02:45.687Z,10.30
2017-12-27T03:05:14.316Z,10.70
2017-12-27T03:07:42.559Z,10.70
2017-12-27T03:10:10.793Z,10.90
2017-12-27T03:12:39.036Z,10.90
2017-12-27T03:15:07.296Z,10.90
2017-12-27T03:17:35.533Z,11.00
2017-12-27T03:20:03.773Z,11.10
2017-12-27T03:22:32.031Z,11.10
2017-12-27T03:25:00.265Z,11.10
2017-12-27T03:27:28.887Z,11.20
2017-12-27T03:29:57.455Z,11.20
2017-12-27T03:32:25.696Z,11.20
2017-12-27T03:34:53.930Z,10.90
2017-12-27T03:37:22.202Z,10.70
2017-12-27T03:39:50.438Z,10.70
2017-12-27T03:42:19.063Z,10.40
2017-12-27T03:44:47.298Z,10.40
2017-12-27T03:47:15.538Z,10.40
2017-12-27T03:49:43.776Z,10.30
2017-12-27T03:52:12.135Z,10.30
2017-12-27T03:54:40.370Z,10.30
2017-12-27T03:57:08.610Z,10.20
2017-12-27T03:59:37.018Z,10.30
2017-12-27T04:02:05.222Z,10.40
2017-12-27T04:04:34.187Z,10.60
2017-12-27T04:07:02.462Z,10.60
2017-12-27T04:09:30.698Z,10.60
2017-12-27T04:11:58.934Z,10.70
2017-12-27T04:14:27.190Z,10.80
2017-12-27T04:16:55.850Z,10.80
2017-12-27T04:19:24.084Z,10.80
2017-12-27T04:21:53.045Z,10.80
2017-12-27T04:24:21.278Z,10.80
2017-12-27T04:26:49.516Z,10.80
2017-12-27T04:29:18.165Z,10.60
2017-12-27T04:31:46.406Z,10.60
2017-12-27T04:34:14.634Z,10.70
2017-12-27T04:36:42.895Z,10.80
2017-12-27T04:39:11.125Z,10.90
2017-12-27T04:41:39.656Z,11.10
2017-12-27T04:44:08.020Z,11.10
2017-12-27T04:46:36.251Z,11.10
2017-12-27T04:49:04.483Z,11.10
2017-12-27T04:51:32.743Z,10.80
2017-12-27T04:54:00.993Z,10.70
2017-12-27T04:56:29.223Z,10.50
2017-12-27T04:58:57.478Z,10.40
2017-12-27T05:01:25.749Z,10.30
2017-12-27T05:03:53.987Z,10.30
2017-12-27T05:06:22.307Z,10.30
2017-12-27T05:08:50.526Z,10.30
2017-12-27T05:11:19.155Z,10.30
2017-12-27T05:13:47.412Z,10.30
2017-12-27T05:16:15.643Z,10.40
2017-12-27T05:18:43.895Z,10.40
2017-12-27T05:21:12.507Z,10.40
2017-12-27T05:23:41.159Z,10.50
2017-12-27T05:26:09.380Z,10.60
2017-12-27T05:28:38.039Z,10.50
2017-12-27T05:31:06.267Z,10.50
2017-12-27T05:33:34.499Z,10.50
2017-12-27T05:36:02.741Z,10.50
2017-12-27T05:38:30.962Z,10.40
2017-12-27T05:40:59.194Z,10.20
2017-12-27T05:43:27.486Z,10.00
2017-12-27T05:45:55.724Z,9.90
2017-12-27T05:48:23.948Z,9.70
2017-12-27T05:50:52.201Z,9.50
2017-12-27T05:53:20.419Z,9.40
2017-12-27T05:55:49.032Z,9.40
2017-12-27T05:58:17.266Z,9.40
2017-12-27T06:00:45.905Z,9.40
2017-12-27T06:03:14.172Z,9.40
2017-12-27T06:05:42.394Z,9.50
2017-12-27T06:08:11.264Z,9.70
2017-12-27T06:10:39.506Z,9.70
2017-12-27T06:13:07.734Z,9.80
2017-12-27T06:15:35.988Z,10.00
2017-12-27T06:18:04.219Z,10.00
2017-12-27T06:20:32.455Z,10.10
2017-12-27T06:23:00.717Z,10.10
2017-12-27T06:25:28.948Z,10.10
2017-12-27T06:27:57.176Z,10.20
2017-12-27T06:30:25.443Z,10.20
2017-12-27T06:32:53.675Z,10.10
2017-12-27T06:35:22.203Z,10.00
2017-12-27T06:37:50.449Z,9.80
2017-12-27T06:40:18.672Z,9.60
2017-12-27T06:42:47.287Z,9.00
2017-12-27T06:45:15.810Z,9.00
2017-12-27T06:47:44.045Z,8.80
2017-12-27T06:50:12.271Z,8.70
2017-12-27T06:52:40.626Z,8.60
2017-12-27T06:55:08.843Z,8.40
2017-12-27T06:57:37.462Z,8.30
2017-12-27T07:00:05.716Z,8.30
2017-12-27T07:02:34.344Z,8.30
2017-12-27T07:05:02.700Z,8.30
2017-12-27T07:07:30.955Z,8.20
2017-12-27T07:09:59.735Z,8.00
2017-12-27T07:12:28.377Z,8.00
2017-12-27T07:14:56.615Z,8.00
2017-12-27T07:17:24.839Z,8.00
2017-12-27T07:19:53.094Z,8.10
2017-12-27T07:22:21.323Z,8.20
2017-12-27T07:24:49.951Z,8.20
2017-12-27T07:27:18.192Z,8.20
2017-12-27T07:29:46.415Z,8.20
2017-12-27T07:32:14.898Z,8.10
2017-12-27T07:34:43.489Z,8.20
2017-12-27T07:37:11.965Z,8.20
2017-12-27T07:39:40.191Z,8.30
2017-12-27T07:42:08.451Z,8.20
2017-12-27T07:44:36.690Z,8.40
2017-12-27T07:47:04.918Z,8.50
2017-12-27T07:49:33.162Z,8.50
2017-12-27T07:52:01.790Z,8.60
2017-12-27T07:54:30.028Z,8.60
2017-12-27T07:56:58.658Z,8.60
2017-12-27T07:59:26.891Z,8.60
2017-12-27T08:01:55.535Z,8.70
2017-12-27T08:04:23.755Z,8.70
2017-12-27T08:06:52.381Z,8.80
2017-12-27T08:09:20.747Z,8.80
2017-12-27T08:11:49.267Z,8.90
2017-12-27T08:14:17.487Z,9.10
2017-12-27T08:16:45.763Z,9.20
2017-12-27T08:19:13.987Z,9.20
2017-12-27T08:21:42.211Z,9.30
2017-12-27T08:24:10.574Z,9.30
2017-12-27T08:26:39.200Z,9.20
2017-12-27T08:29:07.435Z,9.20
2017-12-27T08:31:36.068Z,9.70
2017-12-27T08:34:04.295Z,9.70
2017-12-27T08:36:32.940Z,10.60
2017-12-27T08:39:01.940Z,11.00
2017-12-27T08:41:30.602Z,11.50
2017-12-27T08:43:59.107Z,11.50
2017-12-27T08:46:27.378Z,12.00
2017-12-27T08:48:55.624Z,12.30
2017-12-27T08:51:23.851Z,12.70
2017-12-27T08:53:52.487Z,13.40
2017-12-27T08:56:20.725Z,13.40
2017-12-27T08:58:49.387Z,13.90
2017-12-27T09:01:17.614Z,13.90
2017-12-27T09:03:45.851Z,14.20
2017-12-27T09:06:14.504Z,14.40
2017-12-27T09:08:42.734Z,14.40
2017-12-27T09:11:11.001Z,14.50
2017-12-27T09:13:39.666Z,15.20
2017-12-27T09:16:08.300Z,15.50
2017-12-27T09:18:36.539Z,15.50
2017-12-27T09:21:05.504Z,15.50
2017-12-27T09:23:33.773Z,15.50
2017-12-27T09:26:02.454Z,15.50
2017-12-27T09:28:30.675Z,15.50
2017-12-27T09:30:58.920Z,15.50
2017-12-27T09:33:27.181Z,15.30
2017-12-27T09:35:55.684Z,14.90
2017-12-27T09:38:23.938Z,14.10
2017-12-27T09:40:52.179Z,12.50
2017-12-27T09:43:20.492Z,11.50
2017-12-27T09:45:48.744Z,10.20
2017-12-27T09:48:16.976Z,9.60
2017-12-27T09:50:45.598Z,10.10
2017-12-27T09:53:13.892Z,10.10
2017-12-27T09:55:42.131Z,11.00
2017-12-27T09:58:10.664Z,11.70
2017-12-27T10:00:39.453Z,12.50
2017-12-27T10:03:07.946Z,13.10
2017-12-27T10:05:36.171Z,13.70
2017-12-27T10:08:04.412Z,14.20
2017-12-27T10:10:33.161Z,15.00
2017-12-27T10:13:01.376Z,15.00
2017-12-27T10:15:30.038Z,15.80
2017-12-27T10:17:58.275Z,15.80
2017-12-27T10:20:26.527Z,16.10
2017-12-27T10:22:55.234Z,16.50
2017-12-27T10:25:23.751Z,16.50
2017-12-27T10:27:52.203Z,16.60
2017-12-27T10:30:20.515Z,16.80
2017-12-27T10:32:53.323Z,16.90
2017-12-27T10:35:21.971Z,16.40
2017-12-27T10:37:50.227Z,16.40
2017-12-27T10:40:18.458Z,16.00
2017-12-27T10:42:47.164Z,15.30
2017-12-27T10:45:15.407Z,15.30
2017-12-27T10:47:44.052Z,14.70
2017-12-27T10:50:12.319Z,14.70
2017-12-27T10:52:40.550Z,14.70
2017-12-27T10:55:09.207Z,14.40
2017-12-27T10:57:37.476Z,14.40
2017-12-27T11:00:05.717Z,14.30
2017-12-27T11:02:33.944Z,14.30
2017-12-27T11:05:02.513Z,14.40
2017-12-27T11:07:31.615Z,14.50
2017-12-27T11:09:59.875Z,14.50
2017-12-27T11:12:28.112Z,14.40
2017-12-27T11:14:56.356Z,14.20
2017-12-27T11:17:24.607Z,14.10
2017-12-27T11:19:52.828Z,14.10
2017-12-27T11:22:21.330Z,14.20
2017-12-27T11:24:49.564Z,14.20
2017-12-27T11:27:17.912Z,14.20
2017-12-27T11:29:46.160Z,14.30
2017-12-27T11:32:14.408Z,14.30
2017-12-27T11:34:42.952Z,14.30
2017-12-27T11:37:11.230Z,14.20
2017-12-27T11:39:39.518Z,14.10
2017-12-27T11:42:07.990Z,14.10
2017-12-27T11:44:36.251Z,13.90
2017-12-27T11:47:04.500Z,13.90
2017-12-27T11:49:32.804Z,13.80
2017-12-27T11:52:01.055Z,13.60
2017-12-27T11:54:29.571Z,13.50
2017-12-27T11:56:57.815Z,13.40
2017-12-27T11:59:26.102Z,13.40
2017-12-27T12:01:54.340Z,13.40
2017-12-27T12:04:22.579Z,13.40
2017-12-27T12:06:50.868Z,13.30
2017-12-27T12:09:19.090Z,13.40
2017-12-27T12:11:47.332Z,13.50
2017-12-27T12:14:15.986Z,13.50
2017-12-27T12:16:44.222Z,13.60
2017-12-27T12:19:12.911Z,13.60
2017-12-27T12:21:41.177Z,13.60
2017-12-27T12:24:09.416Z,13.90
2017-12-27T12:26:38.051Z,14.10
2017-12-27T12:29:06.293Z,14.10
2017-12-27T12:31:34.927Z,14.10
2017-12-27T12:34:03.207Z,14.10
2017-12-27T12:36:31.447Z,13.90
2017-12-27T12:38:59.692Z,14.00
2017-12-27T12:41:28.344Z,13.70
2017-12-27T12:43:56.587Z,13.70
2017-12-27T12:46:24.827Z,13.70
2017-12-27T12:48:53.603Z,13.60
2017-12-27T12:51:21.893Z,13.70
2017-12-27T12:53:50.344Z,13.40
2017-12-27T12:56:18.675Z,13.40
2017-12-27T12:58:46.951Z,13.50
2017-12-27T13:01:15.244Z,13.50
2017-12-27T13:03:43.948Z,12.90
2017-12-27T13:06:12.302Z,12.90
2017-12-27T13:08:41.013Z,12.90
2017-12-27T13:11:09.251Z,12.80
2017-12-27T13:13:37.556Z,13.00
2017-12-27T13:16:05.840Z,13.00
2017-12-27T13:18:34.192Z,13.10
2017-12-27T13:21:02.479Z,13.10
2017-12-27T13:23:30.888Z,13.10
2017-12-27T13:25:59.465Z,13.00
2017-12-27T13:28:27.754Z,12.90
2017-12-27T13:30:55.990Z,12.60
2017-12-27T13:33:24.507Z,12.40
2017-12-27T13:35:52.748Z,12.50
2017-12-27T13:38:20.987Z,12.60
2017-12-27T13:40:49.615Z,12.40
2017-12-27T13:43:18.092Z,12.40
2017-12-27T13:45:46.402Z,12.30
2017-12-27T13:48:14.667Z,12.30
2017-12-27T13:50:42.929Z,12.40
2017-12-27T13:53:11.160Z,12.40
2017-12-27T13:55:39.783Z,12.10
2017-12-27T13:58:08.043Z,12.10
2017-12-27T14:00:36.286Z,12.00
2017-12-27T14:03:04.950Z,11.70
2017-12-27T14:05:33.182Z,11.70
2017-12-27T14:08:01.428Z,11.50
2017-12-27T14:10:30.091Z,11.20
2017-12-27T14:12:58.328Z,11.20
2017-12-27T14:15:26.560Z,11.40
2017-12-27T14:17:55.307Z,11.40
2017-12-27T14:20:23.532Z,11.40
2017-12-27T14:22:51.767Z,11.30
2017-12-27T14:25:20.035Z,11.30
2017-12-27T14:27:48.280Z,11.40
2017-12-27T14:30:16.517Z,11.40
2017-12-27T14:32:45.078Z,11.30
2017-12-27T14:35:13.313Z,11.40
2017-12-27T14:37:41.619Z,11.40
2017-12-27T14:40:10.662Z,11.50
2017-12-27T14:42:38.902Z,11.60
2017-12-27T14:45:07.156Z,11.70
2017-12-27T14:47:35.408Z,11.60
2017-12-27T14:50:03.657Z,11.50
2017-12-27T14:52:32.288Z,11.50
2017-12-27T14:55:00.677Z,11.50
2017-12-27T14:57:28.890Z,11.20
2017-12-27T14:59:57.530Z,10.80
2017-12-27T15:02:25.903Z,10.80
2017-12-27T15:04:54.265Z,10.50
2017-12-27T15:07:22.858Z,10.50
2017-12-27T15:09:51.115Z,10.40
2017-12-27T15:12:19.371Z,10.60
2017-12-27T15:14:47.622Z,10.60
2017-12-27T15:17:15.888Z,10.60
2017-12-27T15:19:44.131Z,10.60
2017-12-27T15:22:12.430Z,10.50
2017-12-27T15:24:40.707Z,10.40
2017-12-27T15:27:08.924Z,10.30
2017-12-27T15:29:37.555Z,10.40
2017-12-27T15:32:05.875Z,10.40
2017-12-27T15:34:35.427Z,10.50
2017-12-27T15:37:03.667Z,10.50
2017-12-27T15:39:32.373Z,10.70
2017-12-27T15:42:00.635Z,10.60
2017-12-27T15:44:29.066Z,10.70
2017-12-27T15:46:57.374Z,10.80
2017-12-27T15:49:25.933Z,11.00
2017-12-27T15:51:54.167Z,10.80
2017-12-27T15:54:22.467Z,10.80
2017-12-27T15:56:50.698Z,10.80
2017-12-27T15:59:18.931Z,10.90
2017-12-27T16:01:47.183Z,10.90
2017-12-27T16:04:15.479Z,11.10
2017-12-27T16:06:43.729Z,11.20
2017-12-27T16:09:11.991Z,11.40
2017-12-27T16:11:40.245Z,11.40
2017-12-27T16:14:08.922Z,11.20
2017-12-27T16:16:37.564Z,11.00
2017-12-27T16:19:05.824Z,11.00
2017-12-27T16:21:34.129Z,10.80
2017-12-27T16:24:02.543Z,10.90
2017-12-27T16:26:31.207Z,11.10
2017-12-27T16:29:00.423Z,11.10
2017-12-27T16:31:28.664Z,11.00
2017-12-27T16:33:56.900Z,11.00
2017-12-27T16:36:25.179Z,11.00
2017-12-27T16:38:53.442Z,11.00
2017-12-27T16:41:21.675Z,11.10
2017-12-27T16:43:50.259Z,11.10
2017-12-27T16:46:18.499Z,11.10
2017-12-27T16:48:46.761Z,11.00
2017-12-27T16:51:15.021Z,11.00
2017-12-27T16:53:43.285Z,11.00
2017-12-27T16:56:11.980Z,10.90
2017-12-27T16:58:40.639Z,11.00
2017-12-27T17:01:08.884Z,11.00
2017-12-27T17:03:37.125Z,11.00
2017-12-27T17:06:05.450Z,11.00
2017-12-27T17:08:33.695Z,11.10
2017-12-27T17:11:01.966Z,11.20
2017-12-27T17:13:30.243Z,11.30
2017-12-27T17:15:58.500Z,11.30
2017-12-27T17:18:27.141Z,11.40
2017-12-27T17:20:55.487Z,11.30
2017-12-27T17:23:23.747Z,11.40
2017-12-27T17:25:51.980Z,11.30
2017-12-27T17:28:20.246Z,11.30
2017-12-27T17:30:48.509Z,11.20
2017-12-27T17:33:16.856Z,11.20
2017-12-27T17:35:45.117Z,11.20
2017-12-27T17:38:13.757Z,11.40
2017-12-27T17:40:42.038Z,11.40
2017-12-27T17:43:10.300Z,11.40
2017-12-27T17:45:38.595Z,11.40
2017-12-27T17:48:06.863Z,11.40
2017-12-27T17:50:35.124Z,11.50
2017-12-27T17:53:03.475Z,11.60
2017-12-27T17:55:31.854Z,11.70
2017-12-27T17:58:00.144Z,11.60
2017-12-27T18:00:28.445Z,11.50
2017-12-27T18:02:56.708Z,11.50
2017-12-27T18:05:24.953Z,11.40
2017-12-27T18:07:53.213Z,11.30
2017-12-27T18:10:21.867Z,11.40
2017-12-27T18:12:50.120Z,11.40
2017-12-27T18:15:18.357Z,11.30
2017-12-27T18:17:46.623Z,11.20
2017-12-27T18:20:15.270Z,11.20
2017-12-27T18:22:43.505Z,11.20
2017-12-27T18:25:11.794Z,11.30
2017-12-27T18:27:40.340Z,11.30
2017-12-27T18:30:08.604Z,11.20
2017-12-27T18:32:37.175Z,11.00
2017-12-27T18:35:05.425Z,11.10
2017-12-27T18:37:33.652Z,11.10
2017-12-27T18:40:02.611Z,11.00
2017-12-27T18:42:31.196Z,11.00
2017-12-27T18:44:59.460Z,10.90
2017-12-27T18:47:27.734Z,11.00
2017-12-27T18:49:56.027Z,11.00
2017-12-27T18:52:24.263Z,11.00
2017-12-27T18:54:52.521Z,11.10
2017-12-27T18:57:20.848Z,11.00
2017-12-27T18:59:49.103Z,11.00
2017-12-27T19:02:17.339Z,10.90
2017-12-27T19:04:45.608Z,11.00
2017-12-27T19:07:13.876Z,11.00
2017-12-27T19:09:42.515Z,11.10
2017-12-27T19:12:10.806Z,11.10
2017-12-27T19:14:39.148Z,11.10
2017-12-27T19:17:07.421Z,11.20
2017-12-27T19:19:35.660Z,11.30
2017-12-27T19:22:04.328Z,11.10
2017-12-27T19:24:32.785Z,11.10
2017-12-27T19:27:01.474Z,11.10
2017-12-27T19:29:29.779Z,11.10
2017-12-27T19:31:58.048Z,11.20
2017-12-27T19:34:27.139Z,11.30
2017-12-27T19:36:55.866Z,11.20
2017-12-27T19:39:24.487Z,11.30
2017-12-27T19:41:52.736Z,11.30
2017-12-27T19:44:20.998Z,11.30
2017-12-27T19:46:49.655Z,11.30
2017-12-27T19:49:17.992Z,11.30
2017-12-27T19:51:46.301Z,11.20
2017-12-27T19:54:14.556Z,11.00
2017-12-27T19:56:42.789Z,10.80
2017-12-27T19:59:12.348Z,10.70
2017-12-27T20:01:40.604Z,10.70
2017-12-27T20:04:09.151Z,10.80
2017-12-27T20:06:38.898Z,10.80
2017-12-27T20:09:07.148Z,10.60
2017-12-27T20:11:35.534Z,10.60
2017-12-27T20:14:03.781Z,10.80
2017-12-27T20:16:32.413Z,10.80
2017-12-27T20:19:00.678Z,10.80
2017-12-27T20:21:28.944Z,10.70
2017-12-27T20:23:57.195Z,10.70
2017-12-27T20:26:25.868Z,11.00
2017-12-27T20:28:54.118Z,11.00
2017-12-27T20:31:22.372Z,11.10
2017-12-27T20:33:50.649Z,11.10
2017-12-27T20:36:18.887Z,11.00
2017-12-27T20:38:47.572Z,11.00
2017-12-27T20:41:16.476Z,11.10
2017-12-27T20:43:44.719Z,11.10
2017-12-27T20:46:14.305Z,11.10
2017-12-27T20:48:42.672Z,11.10
2017-12-27T20:51:10.955Z,11.20
2017-12-27T20:53:39.192Z,11.00
2017-12-27T20:56:07.450Z,10.80
2017-12-27T20:58:36.100Z,10.90
2017-12-27T21:01:04.692Z,10.90
2017-12-27T21:03:32.942Z,10.90
2017-12-27T21:06:01.231Z,10.90
2017-12-27T21:08:29.464Z,11.00
2017-12-27T21:10:57.711Z,11.10
2017-12-27T21:13:26.398Z,11.10
2017-12-27T21:15:55.469Z,10.80
2017-12-27T21:18:24.256Z,10.70
2017-12-27T21:20:52.508Z,10.70
2017-12-27T21:23:20.756Z,10.70
2017-12-27T21:25:49.028Z,10.80
2017-12-27T21:28:17.307Z,10.90
2017-12-27T21:30:45.573Z,11.00
2017-12-27T21:33:13.808Z,11.10
2017-12-27T21:35:42.148Z,11.20
2017-12-27T21:38:10.399Z,11.20
2017-12-27T21:40:38.640Z,11.10
2017-12-27T21:43:06.936Z,11.10
2017-12-27T21:45:35.598Z,11.20
2017-12-27T21:48:09.603Z,11.20
2017-12-27T21:50:37.846Z,11.30
2017-12-27T21:53:06.116Z,11.30
2017-12-27T21:55:34.369Z,11.30
2017-12-27T21:58:08.855Z,11.40
2017-12-27T22:00:43.597Z,11.40
2017-12-27T22:03:12.251Z,11.50
2017-12-27T22:05:40.519Z,11.50
2017-12-27T22:08:08.892Z,11.50
2017-12-27T22:10:37.148Z,11.40
2017-12-27T22:13:05.399Z,11.30
2017-12-27T22:15:33.753Z,11.30
2017-12-27T22:18:01.999Z,11.30
2017-12-27T22:20:36.115Z,11.30
2017-12-27T22:23:04.355Z,11.40
2017-12-27T22:25:32.614Z,11.40
2017-12-27T22:28:00.889Z,11.50
2017-12-27T22:30:29.651Z,11.60
2017-12-27T22:32:57.898Z,11.60
2017-12-27T22:35:26.226Z,11.60
2017-12-27T22:37:54.459Z,11.60
2017-12-27T22:40:22.703Z,11.50
2017-12-27T22:42:50.972Z,11.40
2017-12-27T22:45:19.647Z,11.50
2017-12-27T22:47:47.891Z,11.50
2017-12-27T22:50:16.159Z,11.50
2017-12-27T22:52:44.415Z,11.50
2017-12-27T22:55:12.715Z,11.40
2017-12-27T22:57:40.956Z,11.40
2017-12-27T23:00:09.199Z,11.30
2017-12-27T23:02:38.477Z,11.20
2017-12-27T23:05:06.826Z,11.20
2017-12-27T23:07:35.112Z,11.20
2017-12-27T23:10:03.378Z,11.10
2017-12-27T23:12:31.632Z,11.00
2017-12-27T23:14:59.887Z,10.90
2017-12-27T23:17:28.543Z,10.90
2017-12-27T23:19:57.039Z,10.90
2017-12-27T23:22:25.299Z,10.80
2017-12-27T23:24:54.811Z,10.90
2017-12-27T23:27:23.075Z,10.90
2017-12-27T23:29:51.320Z,11.00
2017-12-27T23:32:19.570Z,11.10
2017-12-27T23:34:47.820Z,11.00
2017-12-27T23:37:16.073Z,11.00
2017-12-27T23:39:44.395Z,11.10
2017-12-27T23:42:13.081Z,11.20
2017-12-27T23:44:41.705Z,11.30
2017-12-27T23:47:09.982Z,11.30
2017-12-27T23:49:38.218Z,11.30
2017-12-27T23:52:06.488Z,11.30
2017-12-27T23:54:35.147Z,11.40
2017-12-27T23:57:03.416Z,11.40
2017-12-27T23:59:31.704Z,11.40
